createdAt,value
2017-12-05T00:00:02.673Z,3.10
2017-12-05T00:02:30.463Z,2.97
2017-12-05T00:04:58.249Z,2.57
2017-12-05T00:07:26.267Z,2.07
2017-12-05T00:09:54.055Z,2.00
2017-12-05T00:12:21.935Z,1.87
2017-12-05T00:14:49.870Z,1.93
2017-12-05T00:17:17.894Z,2.40
2017-12-05T00:19:46.556Z,1.73
2017-12-05T00:22:14.516Z,2.03
2017-12-05T00:24:42.439Z,2.00
2017-12-05T00:27:10.321Z,1.97
2017-12-05T00:29:38.161Z,1.77
2017-12-05T00:32:06.035Z,2.37
2017-12-05T00:34:33.872Z,2.37
2017-12-05T00:37:01.663Z,1.67
2017-12-05T00:39:29.488Z,1.70
2017-12-05T00:41:57.383Z,1.40
2017-12-05T00:44:25.200Z,1.60
2017-12-05T00:46:53.093Z,1.40
2017-12-05T00:49:20.922Z,2.23
2017-12-05T00:51:48.725Z,1.60
2017-12-05T00:54:17.346Z,2.00
2017-12-05T00:56:45.144Z,1.27
2017-12-05T00:59:12.986Z,1.70
2017-12-05T01:01:40.856Z,1.60
2017-12-05T01:04:08.737Z,1.90
2017-12-05T01:06:36.525Z,1.73
2017-12-05T01:09:04.411Z,1.63
2017-12-05T01:11:32.221Z,1.90
2017-12-05T01:14:00.032Z,1.87
2017-12-05T01:16:27.803Z,1.83
2017-12-05T01:18:55.600Z,1.40
2017-12-05T01:21:23.424Z,1.80
2017-12-05T01:23:51.319Z,1.60
2017-12-05T01:26:19.171Z,1.87
2017-12-05T01:28:47.045Z,2.00
2017-12-05T01:31:14.821Z,1.70
2017-12-05T01:33:42.727Z,1.40
2017-12-05T01:36:10.526Z,1.40
2017-12-05T01:38:38.411Z,1.20
2017-12-05T01:41:06.396Z,2.10
2017-12-05T01:43:34.234Z,1.50
2017-12-05T01:46:02.101Z,1.43
2017-12-05T01:48:29.893Z,1.93
2017-12-05T01:50:57.798Z,1.70
2017-12-05T01:53:25.675Z,1.27
2017-12-05T01:55:53.595Z,1.87
2017-12-05T01:58:21.551Z,1.70
2017-12-05T02:00:49.604Z,1.60
2017-12-05T02:03:19.331Z,1.90
2017-12-05T02:05:48.079Z,1.40
2017-12-05T02:08:15.995Z,1.33
2017-12-05T02:10:44.018Z,1.57
2017-12-05T02:13:12.075Z,1.60
2017-12-05T02:15:40.103Z,1.37
2017-12-05T02:18:08.068Z,1.60
2017-12-05T02:20:36.564Z,2.03
2017-12-05T04:15:38.993Z,1.50
2017-12-05T04:18:06.919Z,1.40
2017-12-05T04:20:34.726Z,1.53
2017-12-05T04:23:03.609Z,1.60
2017-12-05T04:25:33.182Z,1.30
2017-12-05T04:28:01.398Z,1.00
2017-12-05T04:30:29.333Z,1.27
2017-12-05T04:32:57.218Z,1.30
2017-12-05T04:35:25.117Z,2.00
2017-12-05T04:40:51.503Z,1.33
2017-12-05T04:43:19.412Z,1.30
2017-12-05T04:45:47.452Z,2.07
2017-12-05T04:48:15.476Z,1.40
2017-12-05T04:50:43.511Z,1.30
2017-12-05T04:53:12.159Z,1.60
2017-12-05T04:55:40.086Z,1.63
2017-12-05T04:58:08.014Z,1.47
2017-12-05T05:00:42.001Z,1.60
2017-12-05T05:03:09.982Z,1.63
2017-12-05T05:05:38.582Z,1.30
2017-12-05T05:08:06.463Z,1.30
2017-12-05T05:10:34.353Z,1.63
2017-12-05T05:13:02.279Z,1.40
2017-12-05T05:15:31.074Z,1.67
2017-12-05T05:17:59.039Z,1.53
2017-12-05T05:20:27.979Z,1.43
2017-12-05T05:23:02.737Z,1.70
2017-12-05T05:25:31.752Z,2.07
2017-12-05T05:27:59.637Z,1.90
2017-12-05T05:30:27.528Z,2.50
2017-12-05T05:32:55.535Z,1.70
2017-12-05T05:35:23.522Z,1.40
2017-12-05T05:37:51.775Z,1.30
2017-12-05T05:40:19.777Z,1.70
2017-12-05T05:42:47.753Z,1.50
2017-12-05T05:45:15.647Z,1.47
2017-12-05T05:47:43.574Z,1.20
2017-12-05T05:50:11.576Z,1.53
2017-12-05T05:55:14.273Z,1.67
2017-12-05T05:57:42.890Z,1.10
2017-12-05T06:00:10.771Z,1.07
2017-12-05T06:02:38.618Z,1.20
2017-12-05T06:05:06.518Z,1.40
2017-12-05T06:07:34.359Z,1.30
2017-12-05T06:10:02.207Z,1.40
2017-12-05T06:12:30.886Z,1.50
2017-12-05T06:14:58.896Z,1.90
2017-12-05T06:17:26.784Z,1.30
2017-12-05T06:19:54.709Z,1.43
2017-12-05T06:22:22.601Z,1.60
2017-12-05T06:24:50.494Z,1.23
2017-12-05T06:27:18.894Z,1.77
2017-12-05T06:29:46.885Z,1.23
2017-12-05T06:32:15.191Z,1.60
2017-12-05T06:34:43.125Z,1.77
2017-12-05T06:37:10.988Z,1.93
2017-12-05T06:42:13.826Z,1.63
2017-12-05T06:44:41.689Z,1.20
2017-12-05T06:47:09.597Z,1.50
2017-12-05T06:49:38.422Z,1.53
2017-12-05T06:52:06.497Z,1.60
2017-12-05T06:54:34.533Z,1.93
2017-12-05T06:57:02.626Z,1.90
2017-12-05T06:59:34.534Z,2.03
2017-12-05T07:02:02.492Z,1.27
2017-12-05T07:07:07.310Z,1.85
2017-12-05T07:09:35.187Z,1.67
2017-12-05T07:12:03.047Z,2.20
2017-12-05T07:14:31.791Z,1.37
2017-12-05T07:16:59.737Z,1.30
2017-12-05T07:19:27.618Z,1.87
2017-12-05T07:21:55.626Z,1.70
2017-12-05T07:24:23.503Z,1.37
2017-12-05T07:26:51.540Z,1.67
2017-12-05T07:29:20.155Z,1.33
2017-12-05T07:31:48.082Z,1.40
2017-12-05T07:34:15.988Z,1.67
2017-12-05T07:36:43.911Z,1.10
2017-12-05T07:39:11.792Z,1.60
2017-12-05T07:41:39.639Z,1.53
2017-12-05T07:44:07.570Z,1.37
2017-12-05T07:46:35.573Z,1.40
2017-12-05T07:49:03.569Z,1.73
2017-12-05T07:51:31.736Z,1.20
2017-12-05T07:53:59.556Z,1.30
2017-12-05T07:56:27.406Z,1.43
2017-12-05T07:58:55.267Z,1.10
2017-12-05T08:01:23.102Z,1.57
2017-12-05T08:03:50.924Z,1.40
2017-12-05T08:06:18.876Z,1.57
2017-12-05T08:08:46.756Z,1.60
2017-12-05T08:11:14.629Z,1.35
2017-12-05T08:13:42.636Z,1.60
2017-12-05T08:16:10.657Z,1.90
2017-12-05T08:18:38.548Z,1.47
2017-12-05T08:21:06.455Z,1.50
2017-12-05T08:23:35.087Z,1.23
2017-12-05T08:26:03.057Z,1.20
2017-12-05T08:28:31.129Z,1.10
2017-12-05T08:30:59.092Z,1.20
2017-12-05T08:33:27.139Z,1.10
2017-12-05T08:35:55.052Z,1.30
2017-12-05T08:38:22.912Z,1.10
2017-12-05T08:40:50.870Z,1.23
2017-12-05T08:43:18.829Z,1.10
2017-12-05T08:45:46.826Z,1.70
2017-12-05T08:48:14.768Z,1.17
2017-12-05T08:50:42.616Z,1.40
2017-12-05T08:53:10.464Z,1.40
2017-12-05T08:55:38.474Z,1.50
2017-12-05T08:58:06.412Z,1.33
2017-12-05T09:00:34.296Z,1.70
2017-12-05T09:03:02.136Z,1.13
2017-12-05T09:05:30.823Z,1.37
2017-12-05T09:07:58.724Z,1.40
2017-12-05T09:10:26.557Z,1.30
2017-12-05T09:12:55.181Z,1.50
2017-12-05T09:15:23.192Z,1.40
2017-12-05T09:17:51.243Z,1.00
2017-12-05T09:20:19.205Z,1.10
2017-12-05T09:22:47.123Z,1.20
2017-12-05T09:25:15.096Z,1.53
2017-12-05T09:27:43.040Z,1.37
2017-12-05T09:30:11.696Z,1.27
2017-12-05T09:32:39.646Z,1.23
2017-12-05T09:35:07.594Z,0.80
2017-12-05T09:37:35.483Z,1.10
2017-12-05T09:40:03.394Z,1.10
2017-12-05T09:42:31.350Z,1.33
2017-12-05T09:45:00.024Z,1.20
2017-12-05T09:47:27.954Z,1.60
2017-12-05T09:49:55.861Z,1.33
2017-12-05T09:52:23.719Z,1.00
2017-12-05T09:54:51.597Z,1.23
2017-12-05T09:57:19.466Z,0.90
2017-12-05T09:59:48.169Z,1.47
2017-12-05T10:02:16.121Z,1.33
2017-12-05T10:04:44.179Z,1.40
2017-12-05T10:07:12.074Z,1.37
2017-12-05T10:09:40.859Z,1.73
2017-12-05T10:12:08.793Z,1.50
2017-12-05T10:14:36.772Z,1.80
2017-12-05T10:17:04.795Z,1.50
2017-12-05T10:19:32.741Z,1.90
2017-12-05T10:22:01.379Z,1.40
2017-12-05T10:24:29.215Z,1.30
2017-12-05T10:26:57.128Z,1.50
2017-12-05T10:29:25.260Z,1.37
2017-12-05T10:31:53.127Z,1.50
2017-12-05T10:34:20.979Z,1.20
2017-12-05T10:36:48.949Z,1.60
2017-12-05T10:39:16.857Z,1.33
2017-12-05T10:41:44.793Z,0.90
2017-12-05T10:44:13.120Z,1.60
2017-12-05T10:46:41.201Z,2.10
2017-12-05T10:49:10.166Z,1.30
2017-12-05T10:51:38.053Z,1.47
2017-12-05T10:54:06.067Z,2.80
2017-12-05T10:56:33.925Z,1.60
2017-12-05T10:59:01.932Z,1.40
2017-12-05T11:01:29.916Z,1.20
2017-12-05T11:03:57.790Z,1.47
2017-12-05T11:06:25.649Z,1.50
2017-12-05T11:08:53.667Z,1.60
2017-12-05T11:11:21.546Z,1.50
2017-12-05T11:13:49.423Z,1.57
2017-12-05T11:16:17.342Z,1.80
2017-12-05T11:18:45.960Z,1.53
2017-12-05T11:21:13.878Z,1.40
2017-12-05T11:23:42.660Z,1.60
2017-12-05T11:26:11.550Z,1.60
2017-12-05T11:28:39.645Z,1.90
2017-12-05T11:31:07.511Z,2.07
2017-12-05T11:33:36.086Z,2.03
2017-12-05T11:36:04.740Z,1.83
2017-12-05T11:38:32.578Z,2.17
2017-12-05T11:41:00.443Z,1.37
2017-12-05T11:43:28.311Z,2.07
2017-12-05T11:45:56.213Z,2.60
2017-12-05T11:48:24.126Z,2.27
2017-12-05T11:50:52.056Z,2.80
2017-12-05T11:53:20.036Z,1.60
2017-12-05T11:55:48.760Z,1.60
2017-12-05T11:58:16.822Z,1.50
2017-12-05T12:00:44.865Z,2.27
2017-12-05T12:03:12.980Z,2.10
2017-12-05T12:05:41.307Z,1.27
2017-12-05T12:08:09.312Z,3.00
2017-12-05T12:10:37.169Z,2.30
2017-12-05T12:13:05.723Z,3.13
2017-12-05T12:15:33.542Z,2.93
2017-12-05T12:18:02.109Z,2.00
2017-12-05T12:20:29.922Z,1.90
2017-12-05T12:22:58.003Z,1.83
2017-12-05T12:25:26.693Z,2.13
2017-12-05T12:27:54.468Z,2.30
2017-12-05T12:30:23.100Z,2.20
2017-12-05T12:32:50.884Z,2.10
2017-12-05T12:35:18.724Z,1.80
2017-12-05T12:37:46.594Z,1.73
2017-12-05T12:40:14.695Z,2.43
2017-12-05T12:42:42.590Z,1.73
2017-12-05T12:45:11.165Z,1.73
2017-12-05T12:47:39.052Z,1.93
2017-12-05T12:50:07.644Z,1.67
2017-12-05T12:52:35.583Z,1.50
2017-12-05T12:55:04.271Z,2.30
2017-12-05T12:57:32.131Z,2.90
2017-12-05T12:59:59.961Z,2.57
2017-12-05T13:02:28.547Z,3.50
2017-12-05T13:04:56.475Z,1.80
2017-12-05T13:07:24.302Z,1.90
2017-12-05T13:09:52.195Z,2.20
2017-12-05T13:12:20.797Z,1.70
2017-12-05T13:14:48.595Z,1.90
2017-12-05T13:17:16.398Z,2.20
2017-12-05T13:19:45.142Z,2.07
2017-12-05T13:22:12.943Z,2.10
2017-12-05T13:24:40.821Z,2.30
2017-12-05T13:27:09.433Z,1.87
2017-12-05T13:29:37.235Z,1.80
2017-12-05T13:32:05.037Z,1.57
2017-12-05T13:34:33.849Z,2.03
2017-12-05T13:37:02.454Z,1.93
2017-12-05T13:39:30.269Z,2.47
2017-12-05T13:41:58.992Z,3.33
2017-12-05T13:44:26.862Z,2.10
2017-12-05T13:46:54.792Z,2.73
2017-12-05T13:49:23.459Z,2.60
2017-12-05T13:51:51.435Z,2.17
2017-12-05T13:54:19.635Z,2.27
2017-12-05T13:56:47.689Z,2.50
2017-12-05T13:59:15.512Z,2.87
2017-12-05T14:01:43.417Z,2.23
2017-12-05T14:04:12.096Z,3.63
2017-12-05T14:06:39.983Z,2.30
2017-12-05T14:09:07.812Z,2.07
2017-12-05T14:11:35.660Z,2.17
2017-12-05T14:14:03.633Z,2.13
2017-12-05T14:16:31.465Z,1.90
2017-12-05T14:18:59.345Z,1.43
2017-12-05T14:21:27.181Z,1.40
2017-12-05T14:23:55.967Z,1.93
2017-12-05T14:26:24.773Z,2.60
2017-12-05T14:28:52.629Z,1.97
2017-12-05T14:31:20.654Z,1.97
2017-12-05T14:33:48.814Z,2.50
2017-12-05T14:36:16.776Z,2.63
2017-12-05T14:38:44.657Z,1.83
2017-12-05T14:41:12.570Z,1.67
2017-12-05T14:43:45.329Z,2.07
2017-12-05T14:46:13.492Z,1.80
2017-12-05T14:48:42.125Z,2.40
2017-12-05T14:51:10.888Z,2.50
2017-12-05T14:53:39.571Z,2.43
2017-12-05T14:56:08.395Z,1.97
2017-12-05T14:58:36.269Z,1.90
2017-12-05T15:01:05.064Z,3.10
2017-12-05T15:03:32.930Z,2.20
2017-12-05T15:06:00.839Z,2.47
2017-12-05T15:08:29.511Z,1.97
2017-12-05T15:10:57.330Z,3.33
2017-12-05T15:13:25.195Z,2.50
2017-12-05T15:15:53.003Z,2.23
2017-12-05T15:18:20.905Z,2.60
2017-12-05T15:20:49.633Z,1.90
2017-12-05T15:23:17.621Z,2.73
2017-12-05T15:25:45.585Z,1.90
2017-12-05T15:28:13.869Z,2.27
2017-12-05T15:30:47.564Z,2.20
2017-12-05T15:33:16.637Z,2.20
2017-12-05T15:35:46.928Z,2.30
2017-12-05T15:38:15.647Z,2.40
2017-12-05T15:40:43.481Z,2.70
2017-12-05T15:43:12.075Z,2.93
2017-12-05T15:45:39.938Z,3.20
2017-12-05T15:48:07.828Z,2.60
2017-12-05T15:50:35.686Z,2.70
2017-12-05T15:53:03.685Z,3.13
2017-12-05T15:55:33.156Z,2.53
2017-12-05T15:58:01.074Z,1.97
2017-12-05T16:00:30.270Z,2.00
2017-12-05T16:02:59.069Z,2.40
2017-12-05T16:05:27.854Z,1.93
2017-12-05T16:07:55.692Z,1.90
2017-12-05T16:10:23.473Z,2.50
2017-12-05T16:12:51.290Z,2.27
2017-12-05T16:15:19.311Z,2.20
2017-12-05T16:17:47.096Z,2.17
2017-12-05T16:20:15.678Z,2.30
2017-12-05T16:22:44.540Z,2.17
2017-12-05T16:25:12.359Z,2.53
2017-12-05T16:27:40.193Z,2.23
2017-12-05T16:30:07.995Z,3.37
2017-12-05T16:32:35.967Z,2.87
2017-12-05T16:35:03.856Z,3.27
2017-12-05T16:37:47.879Z,2.80
2017-12-05T16:40:17.180Z,2.80
2017-12-05T16:42:45.979Z,1.87
2017-12-05T16:45:17.126Z,2.57
2017-12-05T16:47:45.191Z,2.87
2017-12-05T16:50:14.981Z,2.37
2017-12-05T16:52:42.905Z,3.37
2017-12-05T16:55:10.674Z,3.07
2017-12-05T16:57:38.580Z,3.07
2017-12-05T17:00:06.448Z,3.20
2017-12-05T17:02:34.336Z,3.50
2017-12-05T17:05:02.164Z,3.50
2017-12-05T17:07:30.725Z,3.27
2017-12-05T17:09:59.488Z,3.03
2017-12-05T17:12:27.461Z,2.90
2017-12-05T17:14:55.371Z,2.50
2017-12-05T17:17:23.895Z,2.97
2017-12-05T17:19:53.639Z,3.23
2017-12-05T17:22:23.285Z,3.40
2017-12-05T17:24:51.126Z,3.00
2017-12-05T17:27:19.736Z,3.53
2017-12-05T17:29:51.323Z,4.07
2017-12-05T17:32:19.264Z,3.40
2017-12-05T17:34:47.167Z,4.17
2017-12-05T17:37:21.013Z,3.93
2017-12-05T17:43:21.605Z,4.00
2017-12-05T17:49:12.612Z,3.90
2017-12-05T17:51:41.722Z,4.27
2017-12-05T17:54:24.517Z,4.10
2017-12-05T17:57:27.184Z,6.10
2017-12-05T17:59:55.042Z,5.90
2017-12-05T18:02:33.126Z,6.43
2017-12-05T18:05:42.610Z,8.00
2017-12-05T18:08:11.315Z,7.00
2017-12-05T18:11:00.833Z,9.40
2017-12-05T18:13:28.678Z,11.80
2017-12-05T18:16:09.694Z,9.50
2017-12-05T18:18:37.701Z,6.33
2017-12-05T18:28:14.401Z,4.37
2017-12-05T18:30:42.419Z,5.80
2017-12-05T18:33:10.380Z,3.83
2017-12-05T18:35:39.593Z,3.90
2017-12-05T18:38:24.927Z,4.23
2017-12-05T18:40:52.788Z,3.70
2017-12-05T18:43:36.103Z,9.00
2017-12-05T18:46:04.000Z,9.97
2017-12-05T18:49:15.686Z,9.55
2017-12-05T18:51:43.544Z,4.90
2017-12-05T18:54:12.799Z,5.60
2017-12-05T18:56:43.029Z,4.63
2017-12-05T18:59:48.507Z,4.43
2017-12-05T19:02:16.350Z,3.70
2017-12-05T19:04:44.192Z,3.40
2017-12-05T19:08:00.176Z,4.37
2017-12-05T19:10:28.145Z,4.53
2017-12-05T19:12:57.247Z,5.33
2017-12-05T19:15:25.997Z,6.67
2017-12-05T19:17:55.184Z,5.00
2017-12-05T19:20:36.948Z,3.77
2017-12-05T19:23:05.515Z,4.40
2017-12-05T19:25:34.655Z,4.20
2017-12-05T19:28:03.892Z,5.97
2017-12-05T19:30:33.189Z,4.17
2017-12-05T19:33:02.437Z,4.67
2017-12-05T19:35:31.312Z,7.10
2017-12-05T19:38:00.327Z,7.87
2017-12-05T19:40:29.446Z,17.93
2017-12-05T19:42:58.576Z,13.70
2017-12-05T19:45:27.824Z,14.40
2017-12-05T19:47:57.081Z,10.95
2017-12-05T19:50:26.197Z,10.57
2017-12-05T19:52:54.541Z,8.20
2017-12-05T19:55:23.897Z,7.20
2017-12-05T19:57:53.363Z,7.33
2017-12-05T20:00:22.714Z,7.63
2017-12-05T20:02:52.611Z,4.80
2017-12-05T20:05:22.019Z,4.20
2017-12-05T20:07:53.524Z,5.87
2017-12-05T20:10:22.779Z,10.40
2017-12-05T20:15:59.276Z,4.90
2017-12-05T20:18:28.246Z,4.93
2017-12-05T20:20:57.364Z,3.63
2017-12-05T20:23:26.452Z,4.70
2017-12-05T20:25:55.713Z,4.30
2017-12-05T20:28:26.193Z,2.87
2017-12-05T20:30:55.496Z,3.53
2017-12-05T20:33:25.902Z,4.63
2017-12-05T20:35:54.977Z,5.47
2017-12-05T20:38:24.078Z,7.60
2017-12-05T20:40:53.349Z,5.50
2017-12-05T20:49:01.045Z,5.37
2017-12-05T20:51:30.147Z,4.13
2017-12-05T20:53:59.232Z,3.30
2017-12-05T20:56:29.915Z,3.73
2017-12-05T20:58:59.177Z,4.27
2017-12-05T21:01:29.929Z,4.40
2017-12-05T21:03:59.195Z,4.30
2017-12-05T21:06:27.025Z,4.30
2017-12-05T21:08:55.342Z,3.83
2017-12-05T21:11:24.484Z,4.20
2017-12-05T21:13:54.637Z,3.90
2017-12-05T21:16:22.436Z,3.93
2017-12-05T21:18:50.205Z,3.40
2017-12-05T21:21:19.379Z,3.00
2017-12-05T21:23:48.415Z,3.30
2017-12-05T21:26:17.572Z,3.07
2017-12-05T21:28:46.709Z,4.80
2017-12-05T21:31:17.144Z,7.20
2017-12-05T21:33:46.248Z,7.53
2017-12-05T21:36:15.279Z,6.97
2017-12-05T21:38:44.512Z,7.80
2017-12-05T21:41:14.945Z,6.87
2017-12-05T21:43:44.685Z,12.53
2017-12-05T21:46:13.790Z,7.43
2017-12-05T21:48:42.962Z,5.80
2017-12-05T21:51:12.583Z,4.87
2017-12-05T21:53:41.772Z,4.37
2017-12-05T21:56:11.672Z,3.67
2017-12-05T21:58:41.426Z,3.50
2017-12-05T22:01:11.464Z,3.23
2017-12-05T22:03:40.632Z,3.60
2017-12-05T22:06:10.061Z,3.57
2017-12-05T22:08:39.427Z,3.27
2017-12-05T22:11:10.772Z,3.17
2017-12-05T22:13:42.546Z,3.13
2017-12-05T22:16:11.671Z,3.07
2017-12-05T22:18:41.343Z,2.50
2017-12-05T22:27:43.456Z,3.73
2017-12-05T22:33:51.910Z,4.00
2017-12-05T22:36:49.557Z,3.87
2017-12-05T22:45:39.148Z,3.83
2017-12-05T22:48:07.042Z,3.57
2017-12-05T22:50:36.555Z,4.10
2017-12-05T22:53:05.558Z,3.47
2017-12-05T22:55:39.210Z,4.07
2017-12-05T22:58:14.257Z,3.40
2017-12-05T23:00:46.021Z,4.30
2017-12-05T23:03:21.225Z,4.70
2017-12-05T23:17:54.742Z,4.73
2017-12-05T23:20:30.401Z,4.07
2017-12-05T23:22:58.169Z,4.17
2017-12-05T23:25:26.044Z,3.07
2017-12-05T23:27:53.853Z,3.20
2017-12-05T23:30:23.081Z,3.57
2017-12-05T23:32:50.848Z,3.10
2017-12-05T23:35:19.581Z,3.93
2017-12-05T23:37:47.393Z,3.23
2017-12-05T23:40:15.281Z,3.17
2017-12-05T23:42:43.136Z,3.20
2017-12-05T23:45:10.951Z,3.50
2017-12-05T23:47:38.801Z,3.93
2017-12-05T23:50:06.656Z,2.92
2017-12-05T23:52:34.968Z,3.83
2017-12-05T23:55:03.567Z,3.00
2017-12-05T23:57:33.857Z,3.10
